Time;durP1;ratioP1;P1;durP2;ratioP2;P2;SDS_P1;SDS_P2;PMS_P1;PMS_P2;Temp;Humidity;BMP_temperature;BMP_pressure;BME280_temperature;BME280_humidity;BME280_pressure;Samples;Min_cycle;Max_cycle;Signal;HPM_P1;HPM_P2
2022/11/18 00:00:03;;;;;;;0.80;0.60;;;;;;;12.13;63.58;95673.41;5032419;28;20192;-70
2022/11/18 00:02:29;;;;;;;1.10;0.70;;;;;;;12.11;64.08;95664.13;5015271;28;20187;-70
2022/11/18 00:04:55;;;;;;;4.50;0.60;;;;;;;12.21;63.41;95667.16;5033112;28;20431;-71
2022/11/18 00:07:20;;;;;;;1.40;0.70;;;;;;;12.22;63.89;95662.75;5033166;28;20542;-70
2022/11/18 00:09:46;;;;;;;0.80;0.50;;;;;;;12.17;63.48;95673.03;5031972;28;20188;-71
2022/11/18 00:14:55;;;;;;;0.97;0.60;;;;;;;12.36;63.37;95674.84;5037834;28;20201;-70
2022/11/18 00:17:21;;;;;;;1.07;0.77;;;;;;;12.38;63.18;95672.84;5031039;28;20557;-71
2022/11/18 00:19:46;;;;;;;1.10;0.70;;;;;;;12.39;63.35;95671.81;5032870;28;20192;-71
2022/11/18 00:22:12;;;;;;;0.90;0.60;;;;;;;12.30;63.44;95662.53;5031704;28;20199;-73
2022/11/18 00:24:37;;;;;;;2.07;0.63;;;;;;;12.31;63.84;95660.69;5032879;28;20215;-72
2022/11/18 00:27:03;;;;;;;1.07;0.60;;;;;;;12.24;63.45;95666.78;5031316;28;20200;-72
2022/11/18 00:29:30;;;;;;;2.03;0.70;;;;;;;12.30;63.69;95665.16;5032716;28;20270;-72
2022/11/18 00:31:56;;;;;;;1.53;0.70;;;;;;;12.31;63.83;95669.41;5031580;28;20238;-70
2022/11/18 00:34:23;;;;;;;1.30;0.70;;;;;;;12.12;64.39;95674.41;5031941;28;20442;-73
2022/11/18 00:36:49;;;;;;;2.90;0.70;;;;;;;12.12;64.64;95676.25;5032893;28;20446;-71
2022/11/18 00:39:16;;;;;;;1.83;0.80;;;;;;;12.13;64.74;95681.28;5031060;28;20430;-71
2022/11/18 00:44:26;;;;;;;1.00;0.67;;;;;;;12.13;64.85;95678.66;5031198;28;20426;-72
2022/11/18 00:46:53;;;;;;;1.97;0.90;;;;;;;12.18;64.64;95683.31;5032412;28;20964;-72
2022/11/18 00:49:18;;;;;;;1.20;0.70;;;;;;;12.09;65.06;95680.09;5032609;28;20666;-71
2022/11/18 00:51:43;;;;;;;1.40;0.90;;;;;;;12.06;65.06;95680.47;5031338;28;20426;-72
2022/11/18 00:54:09;;;;;;;1.40;0.70;;;;;;;12.13;65.38;95681.28;5029775;28;20654;-72
2022/11/18 00:56:35;;;;;;;1.00;0.70;;;;;;;12.14;65.30;95687.38;5031383;28;20202;-72
2022/11/18 00:59:00;;;;;;;0.90;0.60;;;;;;;12.17;65.27;95680.91;5029694;28;20205;-72
2022/11/18 01:01:26;;;;;;;1.40;0.80;;;;;;;12.18;64.98;95678.06;5032552;28;20229;-72
2022/11/18 01:03:51;;;;;;;2.20;0.57;;;;;;;12.12;64.61;95681.50;5030837;28;20286;-70
2022/11/18 01:06:17;;;;;;;1.23;0.60;;;;;;;11.98;65.37;95676.22;5031431;28;20199;-72
2022/11/18 01:08:42;;;;;;;1.83;0.63;;;;;;;12.08;65.41;95675.84;5029833;28;20193;-71
2022/11/18 01:13:52;;;;;;;1.23;0.70;;;;;;;12.03;65.19;95678.25;5016221;28;20802;-71
2022/11/18 01:16:23;;;;;;;1.87;0.80;;;;;;;12.00;65.27;95683.09;5030548;28;20450;-70
2022/11/18 01:18:48;;;;;;;0.90;0.60;;;;;;;12.11;65.42;95680.69;5031798;28;20187;-71
2022/11/18 01:21:14;;;;;;;1.53;0.80;;;;;;;12.14;65.22;95684.75;5011893;28;20579;-71
2022/11/18 01:23:39;;;;;;;1.20;0.70;;;;;;;11.92;65.60;95684.84;5031951;28;20188;-71
2022/11/18 01:26:08;;;;;;;1.43;0.70;;;;;;;12.09;65.04;95682.72;5031387;28;20191;-71
2022/11/18 01:28:34;;;;;;;1.63;0.70;;;;;;;12.14;65.57;95680.28;5031394;28;20195;-72
2022/11/18 01:31:04;;;;;;;2.20;0.70;;;;;;;12.13;65.21;95683.13;5031833;28;20418;-70
2022/11/18 01:33:30;;;;;;;7.27;0.80;;;;;;;12.20;65.30;95683.13;5029224;28;20192;-72
2022/11/18 01:35:55;;;;;;;2.27;0.60;;;;;;;12.17;65.06;95688.78;5031577;28;20436;-71
2022/11/18 01:38:20;;;;;;;2.00;0.50;;;;;;;12.21;65.81;95680.28;5031460;28;20267;-72
2022/11/18 01:40:46;;;;;;;1.50;0.60;;;;;;;12.21;65.54;95695.25;5032526;28;20599;-71
2022/11/18 01:43:15;;;;;;;2.03;0.67;;;;;;;11.99;65.42;95708.50;5016132;28;20230;-72
2022/11/18 01:45:43;;;;;;;0.80;0.50;;;;;;;12.19;65.29;95703.31;5023630;28;20771;-72
2022/11/18 01:48:14;;;;;;;1.30;0.63;;;;;;;12.24;65.09;95700.09;5028992;28;20930;-72
2022/11/18 01:51:11;;;;;;;1.20;0.60;;;;;;;12.24;64.84;95705.34;5027837;28;20853;-72
2022/11/18 01:53:40;;;;;;;1.20;0.50;;;;;;;12.17;64.64;95704.53;5008803;28;20459;-71
2022/11/18 01:56:11;;;;;;;0.80;0.50;;;;;;;12.03;64.82;95712.38;5011041;28;20856;-71
2022/11/18 01:58:37;;;;;;;0.90;0.60;;;;;;;12.02;65.16;95720.47;5029785;28;20414;-71
2022/11/18 02:01:04;;;;;;;1.20;0.50;;;;;;;12.06;65.02;95719.88;5018360;28;20513;-71
2022/11/18 02:03:29;;;;;;;1.20;0.60;;;;;;;12.11;65.13;95721.91;5022785;28;20718;-72
2022/11/18 02:05:56;;;;;;;0.80;0.50;;;;;;;11.97;65.32;95718.41;5029608;28;20423;-71
2022/11/18 02:08:22;;;;;;;1.43;0.53;;;;;;;11.93;65.34;95725.03;5023771;28;20196;-72
2022/11/18 02:10:47;;;;;;;1.40;0.60;;;;;;;11.86;65.69;95734.69;5029424;28;20446;-71
2022/11/18 02:13:13;;;;;;;2.00;0.50;;;;;;;12.00;65.92;95736.38;5031228;28;20192;-71
2022/11/18 02:16:14;;;;;;;1.50;0.57;;;;;;;11.96;65.71;95735.16;5037344;28;20191;-71
2022/11/18 02:18:55;;;;;;;1.57;0.60;;;;;;;11.96;65.38;95729.91;4985620;28;20192;-71
2022/11/18 02:21:29;;;;;;;0.90;0.50;;;;;;;11.96;65.87;95729.91;5027051;28;20524;-71
2022/11/18 02:24:08;;;;;;;1.00;0.60;;;;;;;11.91;65.52;95734.91;5030734;28;20434;-71
2022/11/18 02:26:53;;;;;;;1.43;0.60;;;;;;;11.96;65.97;95735.94;5022890;28;20513;-72
2022/11/18 02:29:31;;;;;;;1.47;0.83;;;;;;;11.53;67.23;95733.53;5027840;28;20431;-69
2022/11/18 02:31:59;;;;;;;1.00;0.50;;;;;;;11.83;66.63;95731.47;5029387;28;20454;-69
2022/11/18 02:34:33;;;;;;;1.60;0.50;;;;;;;11.97;66.62;95734.16;5025218;28;20445;-71
2022/11/18 02:37:02;;;;;;;2.50;0.80;;;;;;;12.02;66.24;95733.59;5013141;28;20454;-71
2022/11/18 02:39:52;;;;;;;1.10;0.70;;;;;;;11.93;66.16;95741.59;5029858;28;20869;-72
2022/11/18 02:42:18;;;;;;;1.33;0.50;;;;;;;12.00;65.41;95736.38;5030671;28;20462;-71
2022/11/18 02:44:48;;;;;;;0.70;0.40;;;;;;;12.07;65.33;95742.50;5030629;28;20918;-71
2022/11/18 02:47:14;;;;;;;0.90;0.50;;;;;;;12.13;65.53;95736.44;5028633;28;20450;-71
2022/11/18 02:49:43;;;;;;;0.90;0.50;;;;;;;12.14;65.08;95732.81;5030466;28;20429;-72
2022/11/18 02:52:10;;;;;;;3.03;0.67;;;;;;;12.19;65.45;95736.66;5027558;28;20180;-72
2022/11/18 02:54:39;;;;;;;0.80;0.50;;;;;;;12.21;65.46;95732.81;5009601;28;20485;-72
2022/11/18 02:57:04;;;;;;;4.57;0.93;;;;;;;12.21;65.92;95737.28;5025143;28;20999;-71
2022/11/18 02:59:30;;;;;;;1.30;0.80;;;;;;;12.21;65.84;95745.16;5033144;28;20426;-71
2022/11/18 03:01:56;;;;;;;1.40;1.07;;;;;;;12.22;65.89;95757.28;5034412;28;20462;-71
2022/11/18 03:04:22;;;;;;;2.50;0.80;;;;;;;12.22;66.56;95749.41;5033811;28;20685;-71
2022/11/18 03:06:53;;;;;;;1.90;0.70;;;;;;;12.23;66.22;95756.25;5032909;28;20253;-71
2022/11/18 03:09:34;;;;;;;1.53;0.83;;;;;;;12.26;66.10;95766.38;5032833;28;20199;-72
2022/11/18 03:12:23;;;;;;;1.00;0.90;;;;;;;12.29;66.31;95771.22;5030391;28;20458;-71
2022/11/18 03:14:57;;;;;;;2.30;0.70;;;;;;;12.31;65.83;95771.84;5040273;28;20430;-71
2022/11/18 03:17:59;;;;;;;0.90;0.50;;;;;;;12.38;65.33;95775.28;5033481;28;20921;-71
2022/11/18 03:20:37;;;;;;;2.80;0.50;;;;;;;12.35;65.39;95782.75;5033424;28;20523;-72
2022/11/18 03:23:02;;;;;;;2.03;0.60;;;;;;;12.33;64.96;95782.97;5034136;28;20805;-72
2022/11/18 03:25:45;;;;;;;4.00;0.60;;;;;;;12.32;65.09;95780.53;5040002;28;20418;-72
2022/11/18 03:28:13;;;;;;;0.80;0.50;;;;;;;12.31;65.32;95784.16;5032265;28;20611;-72
2022/11/18 03:30:44;;;;;;;1.30;0.67;;;;;;;12.23;64.47;95800.91;5032497;28;20499;-72
2022/11/18 03:33:13;;;;;;;1.60;1.50;;;;;;;12.21;65.18;95789.81;5032211;28;20599;-70
2022/11/18 03:35:42;;;;;;;1.00;0.70;;;;;;;12.25;65.64;95798.88;5032335;28;20431;-71
2022/11/18 03:38:12;;;;;;;1.57;0.90;;;;;;;12.27;65.31;95810.84;5031926;28;20455;-71
2022/11/18 03:40:40;;;;;;;0.90;0.60;;;;;;;12.27;65.39;95815.25;5008621;28;20458;-71
2022/11/18 03:43:09;;;;;;;2.70;0.73;;;;;;;12.28;65.78;95819.50;5032291;28;20453;-70
2022/11/18 03:46:24;;;;;;;1.80;1.20;;;;;;;12.29;65.74;95819.31;5032201;28;20430;-72
2022/11/18 03:48:52;;;;;;;2.20;0.87;;;;;;;12.29;65.53;95821.94;5021233;28;20435;-72
2022/11/18 03:51:22;;;;;;;1.10;0.80;;;;;;;12.30;65.66;95820.13;5030265;28;20422;-71
2022/11/18 03:53:55;;;;;;;4.90;1.10;;;;;;;12.28;65.99;95827.41;5032280;28;20505;-70
2022/11/18 03:56:24;;;;;;;1.40;1.00;;;;;;;12.25;65.59;95833.03;5031536;28;20492;-70
2022/11/18 03:58:54;;;;;;;1.30;0.63;;;;;;;12.25;65.77;95825.16;5032265;28;20434;-71
2022/11/18 04:01:28;;;;;;;2.60;0.70;;;;;;;12.30;65.77;95835.91;5030422;28;20458;-70
2022/11/18 04:03:53;;;;;;;1.20;0.80;;;;;;;12.29;65.64;95837.69;5032104;28;20422;-70
2022/11/18 04:06:30;;;;;;;2.27;0.80;;;;;;;12.27;65.34;95841.53;5031818;28;20499;-70
2022/11/18 04:08:58;;;;;;;2.40;0.80;;;;;;;12.26;65.53;95839.91;5031606;28;20195;-71
2022/11/18 04:14:17;;;;;;;1.53;0.87;;;;;;;12.26;65.39;95851.25;5039470;28;20946;-70
2022/11/18 04:16:43;;;;;;;1.53;0.70;;;;;;;12.24;65.70;95855.06;5031271;28;20482;-71
2022/11/18 04:19:09;;;;;;;1.17;0.70;;;;;;;12.21;66.04;95848.38;5031502;28;20439;-70
2022/11/18 04:21:34;;;;;;;2.30;0.80;;;;;;;12.22;65.57;95851.84;5032461;28;20462;-71
2022/11/18 04:24:00;;;;;;;2.40;0.83;;;;;;;12.17;65.43;95860.28;5033083;28;20218;-70
2022/11/18 04:26:25;;;;;;;1.53;0.70;;;;;;;12.06;64.66;95861.66;5032331;28;20206;-71
2022/11/18 04:28:51;;;;;;;0.80;0.50;;;;;;;12.09;64.03;95861.28;5032957;28;20193;-71
2022/11/18 04:31:16;;;;;;;1.17;0.80;;;;;;;12.03;63.62;95866.50;5032552;28;20259;-70
2022/11/18 04:33:42;;;;;;;1.50;0.60;;;;;;;11.91;63.18;95871.44;5032533;28;20235;-71
2022/11/18 04:36:08;;;;;;;2.87;0.60;;;;;;;11.80;62.37;95873.59;5032042;28;20263;-71
2022/11/18 04:38:33;;;;;;;0.93;0.60;;;;;;;11.80;61.91;95876.22;5032258;28;20649;-70
2022/11/18 04:40:58;;;;;;;2.93;2.23;;;;;;;11.82;62.04;95876.84;5034167;28;20214;-71
2022/11/18 04:43:24;;;;;;;1.00;0.70;;;;;;;11.82;62.06;95873.41;5015486;28;20199;-71
2022/11/18 04:45:49;;;;;;;0.93;0.60;;;;;;;11.88;62.18;95869.19;5032396;28;20187;-71
2022/11/18 04:48:15;;;;;;;0.77;0.43;;;;;;;11.89;62.69;95876.06;5029712;28;20675;-71
2022/11/18 04:50:40;;;;;;;0.80;0.47;;;;;;;11.89;62.50;95865.56;5030549;28;20187;-71
2022/11/18 04:53:06;;;;;;;0.80;0.50;;;;;;;11.89;62.72;95873.44;5027777;28;20620;-69
2022/11/18 04:55:34;;;;;;;1.43;0.50;;;;;;;11.91;62.60;95869.59;5024688;28;20193;-70
2022/11/18 04:58:00;;;;;;;1.53;0.50;;;;;;;11.91;62.71;95881.94;5026236;28;20241;-70
2022/11/18 05:00:25;;;;;;;1.00;0.60;;;;;;;11.79;62.21;95877.22;5011536;28;20549;-70
2022/11/18 05:02:50;;;;;;;1.10;0.50;;;;;;;11.77;61.77;95884.47;5031600;28;20188;-70
2022/11/18 05:05:16;;;;;;;1.73;0.50;;;;;;;11.69;61.78;95889.88;5029716;28;20667;-70
2022/11/18 05:07:41;;;;;;;0.80;0.50;;;;;;;11.73;61.86;95887.66;5032434;28;20294;-71
2022/11/18 05:10:07;;;;;;;1.00;0.60;;;;;;;11.75;62.06;95894.34;5030971;28;20194;-71
2022/11/18 05:12:48;;;;;;;0.70;0.40;;;;;;;11.66;61.70;95892.88;5031310;28;20188;-72
2022/11/18 05:15:17;;;;;;;0.80;0.50;;;;;;;11.53;61.70;95889.16;5039880;28;20187;-70
2022/11/18 05:17:43;;;;;;;0.90;0.50;;;;;;;11.47;62.40;95903.00;5034449;28;20449;-72
2022/11/18 05:20:10;;;;;;;1.93;0.60;;;;;;;11.50;62.67;95897.41;5030519;28;20941;-71
2022/11/18 05:22:35;;;;;;;0.80;0.50;;;;;;;11.42;62.38;95908.03;5030387;28;20184;-71
2022/11/18 05:25:01;;;;;;;0.87;0.53;;;;;;;11.44;62.40;95906.03;5037385;28;20595;-72
2022/11/18 05:27:26;;;;;;;1.20;0.80;;;;;;;11.36;62.42;95903.53;5030550;28;20230;-70
2022/11/18 05:29:52;;;;;;;1.00;0.70;;;;;;;11.43;63.05;95899.16;5028821;28;20188;-72
2022/11/18 05:32:17;;;;;;;2.77;1.13;;;;;;;11.45;63.18;95902.41;5030266;28;20558;-72
2022/11/18 05:34:43;;;;;;;2.23;1.10;;;;;;;11.52;63.99;95908.50;5037478;28;20200;-72
2022/11/18 05:37:09;;;;;;;2.20;0.70;;;;;;;11.60;63.20;95912.00;5028954;28;20295;-71
2022/11/18 05:39:34;;;;;;;1.73;1.00;;;;;;;11.58;62.91;95916.66;5031442;28;20234;-72
2022/11/18 05:44:44;;;;;;;2.07;0.90;;;;;;;11.61;62.70;95924.09;5020637;28;20187;-71
2022/11/18 05:47:09;;;;;;;2.43;0.83;;;;;;;11.62;63.12;95930.97;5035693;28;20453;-72
2022/11/18 05:49:35;;;;;;;1.90;0.70;;;;;;;11.62;63.27;95925.75;5029819;28;20238;-72
2022/11/18 05:52:00;;;;;;;1.20;0.80;;;;;;;11.61;63.53;95924.09;5030545;28;20184;-71
2022/11/18 05:54:26;;;;;;;1.00;0.70;;;;;;;11.51;63.14;95924.47;5033057;28;20240;-71
2022/11/18 05:56:52;;;;;;;2.70;0.80;;;;;;;11.40;63.25;95925.78;5035445;28;20294;-70
2022/11/18 05:59:17;;;;;;;1.20;0.77;;;;;;;11.44;64.02;95932.28;5030582;28;20195;-72
2022/11/18 06:01:54;;;;;;;2.53;0.70;;;;;;;11.51;63.69;95934.97;5024214;28;20207;-71
2022/11/18 06:04:35;;;;;;;1.30;0.67;;;;;;;11.50;63.76;95931.50;5024284;28;20267;-71
2022/11/18 06:07:11;;;;;;;3.80;0.93;;;;;;;11.51;64.12;95932.34;5033145;28;20541;-72
2022/11/18 06:09:41;;;;;;;3.00;1.10;;;;;;;11.50;63.46;95934.13;5029329;28;20788;-72
2022/11/18 06:12:06;;;;;;;1.20;1.00;;;;;;;11.53;63.38;95935.56;5028904;28;20418;-71
2022/11/18 06:14:42;;;;;;;2.43;0.90;;;;;;;11.52;63.82;95940.00;5037450;28;20427;-72
2022/11/18 06:17:12;;;;;;;6.20;1.20;;;;;;;11.54;63.78;95947.66;5027915;28;20213;-71
2022/11/18 06:19:38;;;;;;;1.40;0.90;;;;;;;11.56;63.83;95950.13;5030360;28;20512;-72
2022/11/18 06:22:03;;;;;;;2.37;0.90;;;;;;;11.52;63.67;95947.88;5029593;28;20961;-71
2022/11/18 06:24:29;;;;;;;0.97;0.80;;;;;;;11.44;63.66;95949.81;5021226;28;20183;-72
2022/11/18 06:26:54;;;;;;;1.50;0.80;;;;;;;11.46;63.30;95955.69;5029844;28;20806;-71
2022/11/18 06:29:20;;;;;;;2.80;0.70;;;;;;;11.45;62.91;95960.13;5032582;28;20191;-71
2022/11/18 06:31:46;;;;;;;1.03;0.77;;;;;;;11.51;62.60;95967.25;5024463;28;20706;-71
2022/11/18 06:34:11;;;;;;;1.40;0.67;;;;;;;11.48;62.60;95969.44;5037537;28;20625;-72
2022/11/18 06:36:37;;;;;;;0.90;0.60;;;;;;;11.50;62.89;95965.59;5029169;28;20229;-71
2022/11/18 06:39:06;;;;;;;1.93;0.73;;;;;;;11.53;62.89;95970.47;5030117;28;20191;-71
2022/11/18 06:41:32;;;;;;;0.97;0.60;;;;;;;11.54;62.83;95973.91;5027365;28;20746;-72
2022/11/18 06:43:57;;;;;;;2.80;0.97;;;;;;;11.53;62.82;95970.47;5033941;28;20483;-71
2022/11/18 06:49:07;;;;;;;1.70;1.40;;;;;;;11.54;62.96;95979.16;5028234;28;20180;-71
2022/11/18 06:51:32;;;;;;;5.90;1.80;;;;;;;11.53;63.19;95980.97;5022332;28;20418;-72
2022/11/18 06:53:58;;;;;;;1.20;0.90;;;;;;;11.53;62.71;95988.03;5037042;28;20184;-72
2022/11/18 06:56:23;;;;;;;2.07;1.27;;;;;;;11.59;62.48;95986.50;5027542;28;20211;-72
2022/11/18 06:58:57;;;;;;;1.37;0.87;;;;;;;11.43;62.46;95996.22;5024221;28;20191;-72
2022/11/18 07:01:27;;;;;;;1.87;1.20;;;;;;;11.41;62.98;95992.97;5036961;28;20327;-70
2022/11/18 07:03:53;;;;;;;2.47;1.20;;;;;;;11.48;63.33;95995.66;5030084;28;20429;-70
2022/11/18 07:06:23;;;;;;;1.27;0.80;;;;;;;11.44;62.61;95990.00;5029532;28;20486;-72
2022/11/18 07:08:49;;;;;;;4.20;0.80;;;;;;;11.45;62.20;95999.47;5019844;28;20184;-72
2022/11/18 07:11:18;;;;;;;1.20;0.90;;;;;;;11.44;62.38;96000.47;5026853;28;20437;-71
2022/11/18 07:13:44;;;;;;;0.90;0.60;;;;;;;11.41;62.80;96013.13;5033966;28;20429;-72
2022/11/18 07:16:21;;;;;;;2.50;0.80;;;;;;;11.40;62.30;96009.72;5031340;28;20428;-71
2022/11/18 07:18:47;;;;;;;1.40;1.00;;;;;;;11.45;62.61;96017.84;5024547;28;20966;-71
2022/11/18 07:21:16;;;;;;;3.17;0.80;;;;;;;11.48;62.80;96021.91;5039189;28;20456;-71
2022/11/18 07:23:41;;;;;;;1.10;0.70;;;;;;;11.43;62.59;96021.63;5030214;28;20426;-70
2022/11/18 07:26:07;;;;;;;1.00;0.60;;;;;;;11.48;62.32;96022.69;5028618;28;20426;-71
2022/11/18 07:28:33;;;;;;;1.37;0.73;;;;;;;11.37;62.96;96026.66;5029767;28;20241;-71
2022/11/18 07:31:07;;;;;;;2.10;0.50;;;;;;;11.34;63.12;96031.47;5030192;28;20192;-70
2022/11/18 07:33:33;;;;;;;1.30;0.70;;;;;;;11.40;63.00;96028.06;5024348;28;20204;-70
2022/11/18 07:36:09;;;;;;;1.00;0.60;;;;;;;11.27;62.96;96033.19;5028567;28;20437;-70
2022/11/18 07:38:34;;;;;;;3.60;0.70;;;;;;;11.32;63.37;96039.50;5009287;28;20436;-71
2022/11/18 07:41:11;;;;;;;1.40;0.90;;;;;;;11.36;63.25;96045.16;5034945;28;20476;-70
2022/11/18 07:43:37;;;;;;;1.10;0.80;;;;;;;11.39;63.52;96054.50;4990311;28;20602;-72
2022/11/18 07:46:13;;;;;;;0.90;0.70;;;;;;;11.26;63.68;96049.91;5032459;28;20484;-71
2022/11/18 07:48:39;;;;;;;2.93;1.00;;;;;;;11.31;63.71;96055.44;5026156;28;20414;-72
2022/11/18 07:51:05;;;;;;;1.47;0.70;;;;;;;11.37;63.67;96052.03;5033436;28;20493;-71
2022/11/18 07:53:31;;;;;;;1.77;1.00;;;;;;;11.27;63.45;96055.00;5016000;28;20438;-71
2022/11/18 07:55:57;;;;;;;2.20;0.70;;;;;;;11.20;63.67;96057.53;5033651;28;20242;-70
2022/11/18 07:58:22;;;;;;;1.10;0.83;;;;;;;11.18;63.55;96054.28;5032040;28;20422;-71
2022/11/18 08:00:48;;;;;;;2.50;0.73;;;;;;;11.32;63.81;96059.69;5033789;28;20292;-71
2022/11/18 08:03:14;;;;;;;2.60;0.90;;;;;;;11.38;64.00;96066.78;5031970;28;20270;-71
2022/11/18 08:05:39;;;;;;;1.93;1.10;;;;;;;11.46;63.98;96064.06;5034124;28;20176;-71
2022/11/18 08:08:04;;;;;;;2.90;0.90;;;;;;;11.49;64.12;96071.56;4994145;28;20200;-70
2022/11/18 08:10:36;;;;;;;1.83;1.20;;;;;;;11.55;64.06;96069.19;5034170;28;20183;-72
2022/11/18 08:13:02;;;;;;;2.00;1.03;;;;;;;11.60;63.83;96079.94;5033472;28;20191;-72
2022/11/18 08:15:28;;;;;;;1.43;0.80;;;;;;;11.60;63.80;96072.88;5039546;28;20419;-72
2022/11/18 08:17:53;;;;;;;1.17;0.70;;;;;;;11.59;63.72;96083.56;5007681;28;20449;-72
2022/11/18 08:20:19;;;;;;;1.00;0.70;;;;;;;11.60;64.01;96090.41;5030026;28;20207;-72
2022/11/18 08:22:45;;;;;;;1.17;0.60;;;;;;;11.60;63.90;96093.88;5033025;28;20678;-73
2022/11/18 08:25:10;;;;;;;1.60;0.80;;;;;;;11.60;63.88;96099.13;5033620;28;20191;-71
2022/11/18 08:27:36;;;;;;;2.83;0.80;;;;;;;11.61;63.99;96100.75;5015355;28;20495;-72
2022/11/18 08:30:02;;;;;;;1.10;0.90;;;;;;;11.64;63.88;96103.00;5031809;28;20556;-71
2022/11/18 08:32:27;;;;;;;2.27;0.80;;;;;;;11.65;63.47;96103.81;5032767;28;20280;-72
2022/11/18 08:34:53;;;;;;;3.00;0.90;;;;;;;11.64;63.83;96110.06;5035588;28;21221;-73
2022/11/18 08:37:18;;;;;;;3.43;0.87;;;;;;;11.70;64.31;96109.31;5014526;28;20196;-72
2022/11/18 08:39:44;;;;;;;1.50;0.67;;;;;;;11.73;64.35;96111.56;5033409;28;20192;-73
2022/11/18 08:42:09;;;;;;;1.40;0.70;;;;;;;11.74;64.28;96115.81;5028389;28;20292;-72
2022/11/18 08:44:35;;;;;;;2.50;0.90;;;;;;;11.76;64.35;96126.94;5030978;28;20191;-72
2022/11/18 08:47:00;;;;;;;1.47;0.97;;;;;;;11.75;63.80;96120.06;5024610;28;20210;-72
2022/11/18 08:49:26;;;;;;;1.10;0.70;;;;;;;11.78;64.51;96121.53;5031420;28;20745;-72
2022/11/18 08:51:51;;;;;;;0.90;0.70;;;;;;;11.84;64.64;96128.63;5031362;28;20549;-70
2022/11/18 08:54:17;;;;;;;2.13;0.70;;;;;;;11.87;64.43;96130.06;5032300;28;20184;-71
2022/11/18 08:56:42;;;;;;;3.37;0.80;;;;;;;11.90;64.53;96132.31;5031981;28;20204;-72
2022/11/18 08:59:08;;;;;;;2.00;0.80;;;;;;;11.93;64.58;96134.59;5031995;28;20615;-72
2022/11/18 09:01:36;;;;;;;1.20;0.80;;;;;;;11.89;64.46;96128.91;5014888;28;20204;-72
2022/11/18 09:04:02;;;;;;;1.10;0.60;;;;;;;11.91;65.06;96136.56;5031183;28;20593;-71
2022/11/18 09:06:27;;;;;;;0.90;0.67;;;;;;;11.97;64.98;96138.47;5014391;28;20439;-71
2022/11/18 09:08:53;;;;;;;1.73;0.93;;;;;;;11.96;65.77;96140.28;5032244;28;20928;-71
2022/11/18 09:11:22;;;;;;;4.23;0.83;;;;;;;11.99;65.38;96136.47;5032410;28;20180;-71
2022/11/18 09:13:53;;;;;;;4.40;1.40;;;;;;;12.03;64.71;96140.38;5036676;28;20178;-72
2022/11/18 09:16:19;;;;;;;1.10;1.00;;;;;;;12.12;63.58;96149.75;5017632;28;20425;-71
2022/11/18 09:18:44;;;;;;;3.33;2.27;;;;;;;12.17;64.58;96151.00;5030645;28;20414;-72
2022/11/18 09:21:10;;;;;;;1.67;0.90;;;;;;;12.18;64.46;96155.25;5032010;28;20208;-72
2022/11/18 09:23:36;;;;;;;1.50;1.13;;;;;;;12.24;64.40;96146.59;5025460;28;20176;-72
2022/11/18 09:26:07;;;;;;;1.70;1.30;;;;;;;12.29;64.29;96152.91;5040019;28;20187;-72
2022/11/18 09:28:33;;;;;;;1.40;0.70;;;;;;;12.29;63.69;96149.50;5017252;28;20755;-72
2022/11/18 09:31:02;;;;;;;1.40;1.20;;;;;;;12.29;64.25;96160.00;5030800;28;20422;-72
2022/11/18 09:33:28;;;;;;;1.33;0.70;;;;;;;12.21;63.65;96158.31;5013693;28;20532;-72
2022/11/18 09:35:53;;;;;;;5.20;1.10;;;;;;;12.22;63.85;96161.75;5030008;28;20561;-72
2022/11/18 09:38:19;;;;;;;1.90;0.80;;;;;;;12.24;64.06;96160.56;5030318;28;20291;-71
2022/11/18 09:41:09;;;;;;;2.73;1.13;;;;;;;12.25;64.66;96162.19;5034173;28;20207;-71
2022/11/18 09:44:16;;;;;;;4.90;0.90;;;;;;;12.26;65.18;96170.88;5024586;28;20303;-71
2022/11/18 09:46:58;;;;;;;1.70;1.00;;;;;;;12.33;65.32;96165.69;5020693;28;20469;-71
2022/11/18 09:49:33;;;;;;;4.90;1.85;;;;;;;12.29;66.18;96163.44;5028850;28;20781;-71
2022/11/18 09:52:13;;;;;;;3.10;1.30;;;;;;;12.44;66.21;96165.16;5030250;28;20179;-71
2022/11/18 09:54:39;;;;;;;1.90;1.00;;;;;;;12.61;66.34;96173.59;5024770;28;20795;-73
2022/11/18 09:57:18;;;;;;;2.97;1.10;;;;;;;12.69;65.22;96167.38;5031592;28;20450;-71
2022/11/18 09:59:44;;;;;;;4.53;0.93;;;;;;;12.74;64.60;96173.69;5024164;28;20234;-72
2022/11/18 10:02:12;;;;;;;1.53;1.00;;;;;;;12.74;64.68;96176.31;5025801;28;20469;-71
2022/11/18 10:04:38;;;;;;;1.73;1.30;;;;;;;12.76;64.76;96170.91;5031554;28;20179;-71
2022/11/18 10:07:14;;;;;;;3.00;1.40;;;;;;;12.81;64.62;96172.94;5029282;28;20439;-71
2022/11/18 10:09:40;;;;;;;5.00;1.70;;;;;;;12.80;64.36;96176.56;5024454;28;20663;-72
2022/11/18 10:12:21;;;;;;;2.97;1.17;;;;;;;12.85;64.66;96184.72;5029572;28;20454;-72
2022/11/18 10:15:02;;;;;;;1.73;1.23;;;;;;;12.81;64.56;96178.19;5037226;28;20984;-72
2022/11/18 10:17:40;;;;;;;1.50;1.20;;;;;;;12.84;64.04;96191.78;5036890;28;20435;-73
2022/11/18 10:20:31;;;;;;;10.00;1.93;;;;;;;12.85;63.90;96189.97;5030605;28;20425;-70
2022/11/18 10:23:20;;;;;;;1.80;1.27;;;;;;;12.83;63.93;96197.22;5029477;28;20506;-72
2022/11/18 10:25:45;;;;;;;1.63;1.20;;;;;;;12.84;63.85;96199.66;5025108;28;20418;-71
2022/11/18 10:28:21;;;;;;;2.93;1.57;;;;;;;12.81;63.60;96201.88;5028932;28;20822;-71
2022/11/18 10:30:47;;;;;;;6.63;1.80;;;;;;;12.78;64.35;96199.59;5023936;28;20568;-72
2022/11/18 10:33:21;;;;;;;3.37;1.60;;;;;;;12.77;64.36;96197.97;5027981;28;20438;-70
2022/11/18 10:35:47;;;;;;;2.07;1.20;;;;;;;12.71;63.87;96208.28;5023738;28;20717;-70
2022/11/18 10:38:13;;;;;;;3.47;2.17;;;;;;;12.83;63.44;96202.50;5029668;28;20437;-69
2022/11/18 10:41:00;;;;;;;2.53;1.70;;;;;;;12.87;63.57;96208.97;5032440;28;20878;-70
2022/11/18 10:43:51;;;;;;;1.60;1.23;;;;;;;12.87;63.73;96206.34;5029594;28;20176;-72
2022/11/18 10:46:32;;;;;;;3.20;1.50;;;;;;;12.89;63.81;96202.53;5021793;28;20445;-73
2022/11/18 10:49:09;;;;;;;1.50;1.20;;;;;;;12.97;63.82;96203.38;5030376;28;20429;-69
2022/11/18 10:51:37;;;;;;;4.33;1.63;;;;;;;13.04;63.79;96206.88;5025437;28;20417;-70
2022/11/18 10:54:19;;;;;;;3.20;1.50;;;;;;;13.04;64.15;96205.06;5012141;28;20425;-71
2022/11/18 10:56:53;;;;;;;2.80;1.53;;;;;;;13.08;63.93;96210.75;5022878;28;20599;-72
2022/11/18 10:59:37;;;;;;;8.83;1.80;;;;;;;13.09;63.91;96208.94;5028862;28;20438;-72
2022/11/18 11:02:13;;;;;;;4.37;1.60;;;;;;;13.09;64.07;96206.31;5028988;28;21002;-72
2022/11/18 11:04:39;;;;;;;5.13;1.17;;;;;;;13.14;63.63;96203.91;5029952;28;20429;-71
2022/11/18 11:07:25;;;;;;;2.60;1.23;;;;;;;13.27;64.10;96211.06;5029775;28;20443;-71
2022/11/18 11:10:18;;;;;;;2.80;1.50;;;;;;;13.37;63.91;96214.16;5026434;28;20206;-71
2022/11/18 11:12:49;;;;;;;1.90;1.40;;;;;;;13.34;62.94;96211.91;5024110;28;20447;-73
2022/11/18 11:15:34;;;;;;;2.50;1.23;;;;;;;13.42;62.87;96213.59;5036343;28;20431;-71
2022/11/18 11:20:50;;;;;;;1.20;1.00;;;;;;;13.45;62.82;96219.28;5027563;28;20462;-71
2022/11/18 11:23:16;;;;;;;1.00;0.90;;;;;;;13.45;62.72;96221.13;5033498;28;20957;-71
2022/11/18 11:26:01;;;;;;;1.23;1.13;;;;;;;13.43;62.88;96228.38;5034141;28;20517;-73
2022/11/18 11:28:38;;;;;;;1.17;0.77;;;;;;;13.35;62.93;96219.63;5032250;28;20569;-71
2022/11/18 11:31:21;;;;;;;1.47;1.00;;;;;;;13.31;63.53;96233.34;5029551;28;20954;-72
2022/11/18 11:34:39;;;;;;;1.73;1.00;;;;;;;13.41;63.30;96227.78;5031822;28;20433;-73
2022/11/18 11:37:20;;;;;;;1.50;0.87;;;;;;;13.64;63.02;96224.84;4994477;28;20460;-71
2022/11/18 11:39:59;;;;;;;1.13;1.00;;;;;;;13.69;62.50;96225.06;5033502;28;20986;-72
2022/11/18 11:43:03;;;;;;;1.30;1.17;;;;;;;13.73;62.79;96228.94;5036769;28;20462;-72
2022/11/18 11:45:41;;;;;;;2.33;1.27;;;;;;;13.62;62.13;96240.03;5029125;28;20801;-71
2022/11/18 11:48:06;;;;;;;2.40;0.90;;;;;;;13.58;62.10;96238.78;5041029;28;20897;-71
2022/11/18 11:50:52;;;;;;;1.00;0.73;;;;;;;13.51;62.16;96249.28;5020286;28;20425;-71
2022/11/18 11:53:55;;;;;;;1.40;1.07;;;;;;;13.44;62.15;96248.44;5032352;28;20604;-70
2022/11/18 11:56:29;;;;;;;1.27;1.10;;;;;;;13.38;61.94;96250.00;5031068;28;20433;-70
2022/11/18 11:59:07;;;;;;;4.13;1.10;;;;;;;13.37;61.88;96246.53;5032328;28;20524;-72
2022/11/18 12:01:56;;;;;;;1.67;1.30;;;;;;;13.32;62.49;96246.31;5024870;28;20877;-69
2022/11/18 12:04:35;;;;;;;1.50;1.30;;;;;;;13.35;63.08;96248.56;5032259;28;20928;-73
2022/11/18 12:07:02;;;;;;;2.17;1.40;;;;;;;13.42;63.34;96247.81;5033411;28;20837;-71